Time;durP1;ratioP1;P1;durP2;ratioP2;P2;SDS_P1;SDS_P2;PMS_P1;PMS_P2;Temp;Humidity;BMP_temperature;BMP_pressure;BME280_temperature;BME280_humidity;BME280_pressure;Samples;Min_cycle;Max_cycle;Signal;HPM_P1;HPM_P2
2022/05/09 00:00:19;;;;;;;3.03;1.95;;;12.50;99.90;;;;;;4999210;28;20300;-88
2022/05/09 00:02:45;;;;;;;3.83;2.13;;;;;;;;;;4999079;28;20178;-88
2022/05/09 00:05:15;;;;;;;2.90;2.05;;;;;;;;;;4999337;28;20626;-88
2022/05/09 00:07:41;;;;;;;4.22;2.42;;;;;;;;;;5016601;28;20191;-86
2022/05/09 00:10:08;;;;;;;2.20;1.80;;;;;;;;;;4999124;28;20187;-88
2022/05/09 00:12:34;;;;;;;3.35;1.88;;;;;;;;;;4982743;28;20282;-86
2022/05/09 00:15:00;;;;;;;3.05;1.90;;;;;;;;;;4998776;28;20263;-86
2022/05/09 00:17:26;;;;;;;2.83;1.88;;;;;;;;;;4998896;28;20181;-87
2022/05/09 00:19:52;;;;;;;5.20;2.30;;;;;;;;;;4999209;28;20208;-86
2022/05/09 00:22:18;;;;;;;2.55;1.75;;;;;;;;;;4999588;28;20189;-86
2022/05/09 00:24:44;;;;;;;2.47;2.10;;;;;;;;;;4998820;28;20178;-86
2022/05/09 00:27:11;;;;;;;2.33;1.80;;;;;;;;;;5016112;28;20181;-87
2022/05/09 00:29:37;;;;;;;5.60;2.42;;;;;;;;;;5016291;28;20189;-86
2022/05/09 00:32:05;;;;;;;3.65;2.15;;;;;;;;;;4998920;28;20180;-87
2022/05/09 00:34:34;;;;;;;3.00;2.38;;;;;;;;;;4981527;28;20185;-87
2022/05/09 00:37:03;;;;;;;4.07;2.45;;;;;;;;;;4998888;28;20177;-87
2022/05/09 00:39:29;;;;;;;6.25;2.47;;;;;;;;;;5016114;28;20212;-87
2022/05/09 00:41:55;;;;;;;3.75;2.65;;;;;;;;;;4998352;28;20185;-87
2022/05/09 00:44:26;;;;;;;2.75;2.35;;;;;;;;;;4998158;28;20191;-87
2022/05/09 00:46:54;;;;;;;2.45;1.95;;;12.20;99.90;;;;;;4997998;28;20177;-87
2022/05/09 00:49:26;;;;;;;4.13;2.55;;;12.20;99.90;;;;;;4998307;28;20228;-87
2022/05/09 00:52:07;;;;;;;1.95;1.75;;;12.10;99.90;;;;;;4998061;28;20181;-87
2022/05/09 00:54:39;;;;;;;2.65;2.03;;;12.10;99.90;;;;;;4998214;28;20792;-87
2022/05/09 00:57:35;;;;;;;3.63;2.30;;;11.80;99.90;;;;;;4997978;28;20177;-87
2022/05/09 01:03:41;;;;;;;3.75;2.50;;;;;;;;;;5015444;28;20184;-87
2022/05/09 01:06:08;;;;;;;3.22;2.30;;;12.10;99.90;;;;;;4998329;28;20189;-87
2022/05/09 01:08:34;;;;;;;2.55;2.22;;;;;;;;;;5015236;28;20204;-86
2022/05/09 01:11:04;;;;;;;3.92;2.92;;;12.00;99.90;;;;;;4997632;28;20207;-87
2022/05/09 01:13:36;;;;;;;3.10;1.85;;;12.00;99.90;;;;;;4997876;28;20231;-86
2022/05/09 01:16:04;;;;;;;2.70;1.98;;;11.70;99.90;;;;;;4997633;28;20185;-86
2022/05/09 01:18:30;;;;;;;3.60;2.40;;;11.70;99.90;;;;;;4997911;28;20181;-86
2022/05/09 01:20:56;;;;;;;2.30;1.73;;;12.10;99.90;;;;;;4981729;28;20232;-87
2022/05/09 01:23:22;;;;;;;4.72;2.72;;;;;;;;;;4981787;28;20181;-86
2022/05/09 01:25:48;;;;;;;4.30;2.20;;;11.80;99.90;;;;;;4997998;28;20255;-87
2022/05/09 01:28:14;;;;;;;2.50;2.00;;;11.60;99.90;;;;;;4981569;28;20320;-87
2022/05/09 01:30:52;;;;;;;3.35;2.17;;;11.80;99.90;;;;;;4965266;28;20238;-86
2022/05/09 01:33:23;;;;;;;3.17;1.90;;;11.90;99.90;;;;;;4997891;28;20239;-86
2022/05/09 01:35:57;;;;;;;2.78;2.05;;;11.90;99.90;;;;;;4997437;28;20173;-86
2022/05/09 01:38:48;;;;;;;4.40;2.85;;;11.70;99.90;;;;;;5014782;28;20169;-87
2022/05/09 01:41:14;;;;;;;2.88;2.25;;;11.40;99.90;;;;;;5014895;28;20631;-86
2022/05/09 01:43:45;;;;;;;3.17;2.08;;;11.60;99.90;;;;;;4980950;28;20216;-86
2022/05/09 01:46:15;;;;;;;3.22;2.15;;;11.60;99.90;;;;;;5014065;28;20201;-87
2022/05/09 01:51:26;;;;;;;2.22;1.77;;;11.50;99.90;;;;;;5014578;28;20242;-86
2022/05/09 01:53:52;;;;;;;2.20;2.00;;;11.10;99.90;;;;;;4997114;28;20220;-87
2022/05/09 01:56:20;;;;;;;4.93;2.47;;;11.30;99.90;;;;;;5014818;28;20217;-86
2022/05/09 01:58:46;;;;;;;2.65;2.17;;;11.20;99.90;;;;;;4996429;28;20229;-86
2022/05/09 02:01:12;;;;;;;2.92;2.17;;;;;;;;;;4996597;28;20703;-87
2022/05/09 02:03:38;;;;;;;3.88;2.65;;;11.50;99.90;;;;;;4981100;28;20238;-86
2022/05/09 02:06:04;;;;;;;2.72;2.47;;;;;;;;;;4996688;28;20188;-86
2022/05/09 02:08:30;;;;;;;3.72;2.13;;;;;;;;;;5014494;28;20260;-86
2022/05/09 02:10:56;;;;;;;3.95;2.42;;;10.60;99.90;;;;;;4997261;28;20212;-85
2022/05/09 02:13:22;;;;;;;2.85;2.05;;;;;;;;;;4980539;28;20684;-87
2022/05/09 02:15:50;;;;;;;3.22;2.35;;;10.80;99.90;;;;;;4996721;28;20650;-86
2022/05/09 02:18:16;;;;;;;2.88;2.33;;;10.60;99.90;;;;;;4980399;28;20181;-85
2022/05/09 02:20:42;;;;;;;3.90;2.80;;;10.80;99.90;;;;;;4980865;28;20231;-87
2022/05/09 02:23:08;;;;;;;4.88;2.38;;;10.80;99.90;;;;;;4996495;28;20545;-87
2022/05/09 02:25:36;;;;;;;3.03;2.63;;;10.70;99.90;;;;;;4996575;28;20184;-86
2022/05/09 02:28:06;;;;;;;3.28;2.30;;;10.50;99.90;;;;;;4997001;28;20235;-86
2022/05/09 02:30:33;;;;;;;3.10;2.37;;;10.60;99.90;;;;;;4980892;28;20308;-86
2022/05/09 02:32:59;;;;;;;3.75;2.97;;;10.70;99.90;;;;;;4996880;28;20627;-88
2022/05/09 02:35:25;;;;;;;3.20;2.22;;;10.30;99.90;;;;;;4980464;28;20239;-88
2022/05/09 02:37:52;;;;;;;3.17;2.65;;;10.40;99.90;;;;;;4980509;28;20177;-88
2022/05/09 02:40:18;;;;;;;4.85;3.05;;;10.30;99.90;;;;;;4996102;28;20263;-87
2022/05/09 02:42:44;;;;;;;5.32;2.63;;;10.40;99.90;;;;;;4997500;28;20184;-87
2022/05/09 02:45:11;;;;;;;6.33;3.90;;;10.50;99.90;;;;;;4996181;28;20177;-87
2022/05/09 02:47:37;;;;;;;4.65;2.75;;;10.30;99.90;;;;;;4996617;28;20181;-87
2022/05/09 02:50:04;;;;;;;2.90;2.60;;;10.50;99.90;;;;;;5013646;28;20177;-87
2022/05/09 02:52:29;;;;;;;4.80;2.15;;;10.40;99.90;;;;;;5002535;28;20173;-87
2022/05/09 02:54:55;;;;;;;3.47;2.65;;;9.90;99.90;;;;;;4969947;28;20219;-88
2022/05/09 02:57:22;;;;;;;3.65;2.83;;;;;;;;;;4985667;28;20177;-87
2022/05/09 02:59:50;;;;;;;5.32;3.00;;;9.80;99.90;;;;;;5022743;28;20232;-87
2022/05/09 03:02:16;;;;;;;5.40;3.00;;;;;;;;;;4988312;28;20177;-87
2022/05/09 03:04:42;;;;;;;3.83;3.10;;;10.00;99.90;;;;;;5002438;28;20196;-87
2022/05/09 03:07:14;;;;;;;4.55;2.70;;;10.20;99.90;;;;;;5008157;28;20181;-87
2022/05/09 03:09:43;;;;;;;5.38;3.08;;;10.50;99.90;;;;;;5025086;28;20168;-86
2022/05/09 03:12:11;;;;;;;4.07;2.63;;;10.10;99.90;;;;;;5024877;28;20185;-87
2022/05/09 03:14:37;;;;;;;3.53;2.60;;;10.10;99.90;;;;;;5032552;28;20180;-87
2022/05/09 03:17:05;;;;;;;3.33;2.33;;;10.10;99.90;;;;;;5017571;28;20340;-88
2022/05/09 03:19:31;;;;;;;3.60;2.40;;;10.30;99.90;;;;;;4984078;28;20220;-87
2022/05/09 03:21:57;;;;;;;3.50;2.40;;;10.20;99.90;;;;;;4999892;28;20264;-86
2022/05/09 03:24:23;;;;;;;3.00;2.47;;;;;;;;;;4983968;28;20215;-86
2022/05/09 03:26:49;;;;;;;4.50;2.67;;;10.20;99.90;;;;;;4999767;28;20181;-88
2022/05/09 03:29:19;;;;;;;4.23;3.07;;;10.50;99.90;;;;;;5000201;28;20208;-89
2022/05/09 03:31:46;;;;;;;5.37;2.47;;;9.70;99.90;;;;;;5016950;28;20606;-89
2022/05/09 03:34:12;;;;;;;2.50;2.17;;;10.40;99.90;;;;;;4999759;28;20231;-90
2022/05/09 03:36:38;;;;;;;4.63;2.67;;;10.10;99.90;;;;;;4999645;28;20177;-90
2022/05/09 03:39:05;;;;;;;4.77;2.17;;;10.50;99.90;;;;;;4983126;28;20594;-88
2022/05/09 03:41:31;;;;;;;3.80;2.43;;;10.20;99.90;;;;;;5016873;28;20184;-87
2022/05/09 03:43:57;;;;;;;3.90;2.50;;;;;;;;;;4999474;28;20634;-90
2022/05/09 03:46:23;;;;;;;3.27;2.17;;;10.10;99.90;;;;;;4983095;28;20191;-87
2022/05/09 03:48:49;;;;;;;2.50;1.83;;;;;;;;;;4999598;28;20256;-86
2022/05/09 03:51:14;;;;;;;3.27;2.30;;;10.40;99.90;;;;;;4999394;28;20177;-88
2022/05/09 03:53:40;;;;;;;3.00;2.25;;;;;;;;;;4967136;28;20635;-87
2022/05/09 03:56:07;;;;;;;3.23;2.60;;;10.40;99.90;;;;;;5018716;28;20227;-87
2022/05/09 03:58:33;;;;;;;5.32;2.45;;;10.50;99.90;;;;;;4995980;28;20213;-87
2022/05/09 04:00:59;;;;;;;2.85;2.45;;;10.20;99.90;;;;;;5029963;28;20287;-88
2022/05/09 04:03:25;;;;;;;4.73;2.63;;;;;;;;;;5017291;28;20227;-87
2022/05/09 04:05:59;;;;;;;3.83;2.57;;;10.30;99.90;;;;;;4983579;28;20623;-87
2022/05/09 04:08:25;;;;;;;2.60;2.33;;;10.60;99.90;;;;;;4984205;28;20181;-87
2022/05/09 04:10:53;;;;;;;2.35;1.73;;;10.40;99.90;;;;;;4983414;28;20645;-86
2022/05/09 04:13:19;;;;;;;3.67;2.70;;;10.40;99.90;;;;;;4983486;28;20185;-86
2022/05/09 04:18:42;;;;;;;3.10;2.20;;;10.40;99.90;;;;;;5017510;28;20173;-86
2022/05/09 04:21:10;;;;;;;2.60;1.93;;;10.40;99.90;;;;;;4999872;28;20233;-86
2022/05/09 04:23:37;;;;;;;2.87;2.33;;;10.80;99.90;;;;;;5000173;28;20268;-86
2022/05/09 04:26:10;;;;;;;3.60;2.50;;;10.70;99.90;;;;;;5000429;28;20665;-88
2022/05/09 04:31:59;;;;;;;3.50;2.57;;;10.40;99.90;;;;;;5020868;28;20224;-85
2022/05/09 04:34:25;;;;;;;2.90;2.17;;;11.10;99.90;;;;;;5017148;28;20188;-85
2022/05/09 04:36:51;;;;;;;4.80;3.10;;;;;;;;;;4999310;28;20177;-85
2022/05/09 04:39:21;;;;;;;4.07;2.43;;;10.80;99.90;;;;;;4982874;28;20195;-87
2022/05/09 04:41:46;;;;;;;3.80;2.65;;;11.10;99.90;;;;;;4999068;28;20275;-86
2022/05/09 04:44:12;;;;;;;4.10;2.78;;;;;;;;;;5003508;28;20204;-86
2022/05/09 04:46:39;;;;;;;6.18;3.58;;;11.20;99.90;;;;;;5006231;28;20177;-85
2022/05/09 04:49:05;;;;;;;7.13;4.22;;;10.90;99.90;;;;;;5025274;28;20204;-87
2022/05/09 04:51:31;;;;;;;11.03;5.87;;;;;;;;;;4991912;28;20177;-86
2022/05/09 04:53:57;;;;;;;3.92;2.58;;;10.90;99.90;;;;;;5011223;28;20178;-86
2022/05/09 04:56:23;;;;;;;2.65;2.22;;;;;;;;;;4978104;28;20187;-85
2022/05/09 04:58:48;;;;;;;3.53;1.87;;;11.30;99.90;;;;;;5009807;28;20236;-85
2022/05/09 05:01:15;;;;;;;3.93;2.33;;;;;;;;;;5012110;28;20213;-85
2022/05/09 05:03:40;;;;;;;4.50;2.97;;;11.70;99.90;;;;;;5014430;28;20674;-89
2022/05/09 05:06:06;;;;;;;4.78;2.42;;;;;;;;;;4982625;28;20189;-87
2022/05/09 05:08:34;;;;;;;2.83;2.38;;;11.60;99.90;;;;;;5000040;28;20205;-86
2022/05/09 05:11:06;;;;;;;3.42;2.20;;;11.10;99.90;;;;;;5009612;28;20185;-88
2022/05/09 05:13:33;;;;;;;2.97;2.10;;;11.50;99.90;;;;;;5027474;28;20181;-87
2022/05/09 05:15:59;;;;;;;6.85;3.75;;;;;;;;;;5008564;28;20245;-88
2022/05/09 05:18:27;;;;;;;5.57;2.95;;;11.60;99.90;;;;;;5004777;28;20184;-89
2022/05/09 05:20:53;;;;;;;3.78;1.80;;;11.80;99.90;;;;;;5016068;28;20211;-87
2022/05/09 05:23:20;;;;;;;5.38;2.63;;;12.10;99.90;;;;;;4983341;28;20239;-92
2022/05/09 05:25:47;;;;;;;4.03;2.10;;;;;;;;;;4981191;28;20216;-88
2022/05/09 05:28:13;;;;;;;2.72;2.05;;;11.80;99.90;;;;;;4998513;28;20191;-90
2022/05/09 05:30:40;;;;;;;2.65;1.95;;;;;;;;;;4999703;28;20180;-91
2022/05/09 05:33:06;;;;;;;2.80;1.77;;;12.00;99.90;;;;;;5015726;28;20209;-89
2022/05/09 05:35:32;;;;;;;3.95;1.83;;;;;;;;;;5015006;28;20577;-88
2022/05/09 05:37:59;;;;;;;2.05;1.92;;;12.50;99.90;;;;;;5014698;28;20646;-86
2022/05/09 05:40:27;;;;;;;3.03;1.90;;;12.70;99.90;;;;;;5015199;28;20244;-91
2022/05/09 05:42:53;;;;;;;1.38;1.27;;;;;;;;;;4981727;28;20182;-90
2022/05/09 05:45:23;;;;;;;2.38;1.60;;;12.20;99.90;;;;;;5002562;28;20169;-91
2022/05/09 05:48:00;;;;;;;;;;;;;;;;;;;;;
2022/05/09 05:50:26;;;;;;;2.75;1.80;;;;;;;;;;5015244;28;20626;-90
2022/05/09 05:53:04;;;;;;;3.85;2.03;;;12.60;99.90;;;;;;4998101;28;20181;-91
2022/05/09 05:55:37;;;;;;;1.95;1.33;;;12.70;99.90;;;;;;4983141;28;20287;-88
2022/05/09 05:58:08;;;;;;;3.50;1.92;;;12.70;99.90;;;;;;5015311;28;20162;-89
2022/05/09 06:00:37;;;;;;;1.98;1.20;;;;;;;;;;4995746;28;20246;-92
2022/05/09 06:03:10;;;;;;;5.70;1.27;;;;;;;;;;4994679;28;20697;-91
2022/05/09 06:05:39;;;;;;;2.00;1.60;;;;;;;;;;4995276;28;20272;-90
2022/05/09 06:08:16;;;;;;;2.70;1.50;;;13.10;99.90;;;;;;4995336;28;20178;-94
2022/05/09 06:10:48;;;;;;;1.33;1.20;;;13.20;99.90;;;;;;4997319;28;20217;-91
2022/05/09 06:13:28;;;;;;;2.05;1.38;;;13.20;99.90;;;;;;4999051;28;20177;-94
2022/05/09 06:16:08;;;;;;;3.38;1.48;;;13.30;99.90;;;;;;4987980;28;20189;-94
2022/05/09 06:18:44;;;;;;;;;;;;;;;;;;;;;
2022/05/09 06:21:50;;;;;;;1.25;1.15;;;13.50;99.90;;;;;;4997782;28;20312;-94
2022/05/09 06:24:21;;;;;;;1.55;1.23;;;12.90;99.90;;;;;;4984062;28;20650;-94
2022/05/09 06:26:59;;;;;;;2.03;1.50;;;13.60;99.90;;;;;;4999440;28;20174;-93
2022/05/09 06:29:25;;;;;;;2.90;1.80;;;;;;;;;;4999197;28;20635;-93
2022/05/09 06:32:43;;;;;;;2.65;2.30;;;13.70;99.90;;;;;;4997501;28;20193;-95
2022/05/09 06:41:49;;;;;;;;;;;;;;;;;;;;;
2022/05/09 06:44:40;;;;;;;2.97;1.60;;;13.90;99.90;;;;;;4996557;28;20244;-93
2022/05/09 06:47:22;;;;;;;;;;;;;;;;;;;;;
2022/05/09 06:49:53;;;;;;;2.13;1.40;;;;;;;;;;4995072;28;20166;-91
2022/05/09 06:52:32;;;;;;;1.15;0.90;;;14.10;99.90;;;;;;4994769;28;20173;-90
2022/05/09 06:55:08;;;;;;;2.13;1.30;;;;;;;;;;4998339;28;20256;-93
2022/05/09 06:57:57;;;;;;;2.42;1.30;;;14.20;99.90;;;;;;5003773;28;20204;-94
2022/05/09 07:00:50;;;;;;;3.45;1.58;;;14.20;99.90;;;;;;4991210;28;20242;-95
2022/05/09 07:03:23;;;;;;;2.50;1.35;;;;;;;;;;5009263;28;20182;-93
2022/05/09 07:06:02;;;;;;;;;;;;;;;;;;;;;
2022/05/09 07:08:42;;;;;;;1.63;1.08;;;14.30;99.90;;;;;;5001895;28;20217;-94
2022/05/09 07:11:54;;;;;;;1.27;1.17;;;14.40;99.90;;;;;;5002195;28;20201;-94
2022/05/09 07:14:33;;;;;;;1.95;1.52;;;14.40;99.90;;;;;;4987829;28;20188;-93
2022/05/09 07:17:10;;;;;;;2.00;1.10;;;14.50;99.90;;;;;;5002283;28;20236;-94
2022/05/09 07:19:45;;;;;;;1.45;1.15;;;;;;;;;;4988687;28;20217;-95
2022/05/09 07:25:39;;;;;;;4.20;2.13;;;;;;;;;;5005488;28;20157;-94
2022/05/09 07:28:31;;;;;;;3.10;1.20;;;14.50;99.90;;;;;;4999392;28;20193;-93
2022/05/09 07:34:19;;;;;;;1.15;1.05;;;;;;;;;;4994913;28;20177;-92
2022/05/09 07:36:47;;;;;;;3.22;1.23;;;;;;;;;;4997242;28;20188;-90
2022/05/09 07:39:16;;;;;;;2.47;1.80;;;;;;;;;;4994825;28;20627;-91
2022/05/09 07:41:53;;;;;;;6.45;1.48;;;14.80;99.90;;;;;;4994592;28;20224;-91
2022/05/09 07:44:43;;;;;;;3.17;1.63;;;14.90;99.90;;;;;;4995191;28;20180;-92
2022/05/09 07:47:10;;;;;;;1.42;1.15;;;15.00;99.90;;;;;;4997871;28;20631;-90
2022/05/09 07:49:57;;;;;;;1.73;1.13;;;;;;;;;;4997518;28;20216;-90
2022/05/09 07:53:01;;;;;;;1.17;1.08;;;15.30;96.20;;;;;;4998388;28;20600;-92
2022/05/09 07:55:39;;;;;;;1.13;1.02;;;15.30;96.10;;;;;;4998334;28;20182;-92
2022/05/09 07:58:11;;;;;;;1.67;1.15;;;;;;;;;;4997596;28;20178;-91
2022/05/09 08:01:18;;;;;;;1.95;1.50;;;15.40;94.50;;;;;;4997699;28;20321;-92
2022/05/09 08:03:58;;;;;;;;;;;;;;;;;;;;;
2022/05/09 08:06:32;;;;;;;2.05;1.00;;;;;;;;;;5018092;28;20201;-93
2022/05/09 08:09:19;;;;;;;1.00;0.90;;;15.70;91.70;;;;;;5009050;28;20658;-91
2022/05/09 08:12:05;;;;;;;1.05;0.90;;;15.60;91.60;;;;;;4996778;28;20194;-94
2022/05/09 08:14:38;;;;;;;1.08;0.80;;;15.70;92.40;;;;;;4997020;28;20181;-91
2022/05/09 08:17:27;;;;;;;;;;;;;;;;;;;;;
2022/05/09 08:19:58;;;;;;;1.90;1.20;;;15.90;89.60;;;;;;4994576;28;20258;-92
2022/05/09 08:22:50;;;;;;;0.90;0.90;;;15.80;88.90;;;;;;5003044;28;20178;-94
2022/05/09 08:28:35;;;;;;;0.70;0.70;;;16.00;89.10;;;;;;4987463;28;20276;-92
2022/05/09 08:31:07;;;;;;;0.93;0.73;;;16.20;87.90;;;;;;4989071;28;20201;-91
2022/05/09 08:34:00;;;;;;;0.95;0.93;;;;;;;;;;4999086;28;20178;-93
2022/05/09 08:40:55;;;;;;;;;;;;;;;;;;;;;
2022/05/09 08:44:15;;;;;;;;;;;;;;;;;;;;;
2022/05/09 08:47:00;;;;;;;;;;;;;;;;;;;;;
2022/05/09 08:50:35;;;;;;;;;;;;;;;;;;;;;
2022/05/09 09:00:36;;;;;;;1.77;0.80;;;17.10;80.10;;;;;;4937887;29;20326;-94
2022/05/09 09:03:55;;;;;;;1.42;1.08;;;17.20;78.50;;;;;;4929763;29;20236;-94
2022/05/09 09:10:43;;;;;;;;;;;;;;;;;;;;;
2022/05/09 09:13:40;;;;;;;0.70;0.70;;;17.00;77.30;;;;;;4884336;29;20209;-89
2022/05/09 09:16:35;;;;;;;;;;;;;;;;;;;;;
2022/05/09 09:19:27;;;;;;;;;;;;;;;;;;;;;
2022/05/09 09:22:29;;;;;;;1.33;0.88;;;;;;;;;;4996189;28;20170;-91
2022/05/09 09:25:32;;;;;;;;;;;;;;;;;;;;;
2022/05/09 09:28:46;;;;;;;;;;;;;;;;;;;;;
2022/05/09 09:39:57;;;;;;;0.75;0.75;;;;;;;;;;5019992;23;20336;-89
2022/05/09 09:42:43;;;;;;;1.10;0.68;;;17.90;72.30;;;;;;4995670;28;20193;-89
2022/05/09 09:45:44;;;;;;;0.57;0.57;;;17.90;73.90;;;;;;4983732;28;20614;-92
2022/05/09 09:48:19;;;;;;;0.82;0.82;;;18.10;72.30;;;;;;4978779;28;20208;-90
2022/05/09 09:51:08;;;;;;;0.95;0.70;;;18.10;69.10;;;;;;4979228;28;20194;-89
2022/05/09 09:54:02;;;;;;;0.75;0.75;;;18.10;70.10;;;;;;4963815;28;20186;-89
2022/05/09 09:56:47;;;;;;;;;;;;;;;;;;;;;
2022/05/09 10:03:48;;;;;;;;;;;;;;;;;;;;;
2022/05/09 10:07:10;;;;;;;0.70;0.60;;;18.60;66.10;;;;;;4937763;29;20186;-89
2022/05/09 10:13:32;;;;;;;;;;;;;;;;;;;;;
2022/05/09 10:17:03;;;;;;;1.63;1.08;;;18.20;64.70;;;;;;4982136;28;20273;-88
2022/05/09 10:26:53;;;;;;;;;;;;;;;;;;;;;
2022/05/09 10:29:56;;;;;;;0.98;0.73;;;18.80;62.70;;;;;;4987662;28;20261;-90
2022/05/09 10:36:02;;;;;;;0.60;0.60;;;18.80;59.70;;;;;;5003098;28;20262;-89
2022/05/09 10:38:52;;;;;;;1.10;0.90;;;18.80;60.20;;;;;;4983952;28;20182;-88
2022/05/09 10:41:57;;;;;;;0.52;0.52;;;19.00;60.30;;;;;;4986035;28;20557;-89
2022/05/09 10:45:07;;;;;;;0.57;0.50;;;19.10;59.90;;;;;;4956292;28;20181;-89
2022/05/09 10:48:04;;;;;;;0.47;0.47;;;19.30;60.20;;;;;;4975893;28;20184;-89
2022/05/09 10:51:03;;;;;;;3.22;1.90;;;19.40;56.60;;;;;;4994460;28;20177;-89
2022/05/09 10:53:53;;;;;;;1.55;0.65;;;19.00;57.10;;;;;;4992992;28;20199;-90
2022/05/09 10:57:08;;;;;;;1.13;0.75;;;18.70;58.30;;;;;;4998382;28;20185;-90
2022/05/09 11:00:19;;;;;;;;;;;;;;;;;;;;;
2022/05/09 11:03:37;;;;;;;1.20;0.95;;;19.20;59.00;;;;;;5013705;28;20186;-92
2022/05/09 11:06:07;;;;;;;0.90;0.80;;;19.60;58.40;;;;;;5007875;28;20189;-92
2022/05/09 11:08:58;;;;;;;1.60;0.80;;;19.60;57.90;;;;;;4994089;28;20182;-91
2022/05/09 11:11:48;;;;;;;0.70;0.70;;;19.60;58.30;;;;;;4997277;28;20238;-91
2022/05/09 11:14:45;;;;;;;5.97;1.42;;;19.70;57.10;;;;;;4997093;28;20174;-91
2022/05/09 11:17:30;;;;;;;0.70;0.60;;;19.80;57.10;;;;;;4993269;28;20189;-91
2022/05/09 11:20:10;;;;;;;1.38;1.27;;;19.30;57.70;;;;;;4994144;28;20228;-91
2022/05/09 11:23:10;;;;;;;;;;;;;;;;;;;;;
2022/05/09 11:26:00;;;;;;;0.70;0.70;;;19.60;56.60;;;;;;5004590;28;20238;-89
2022/05/09 11:29:14;;;;;;;1.23;0.60;;;19.70;57.50;;;;;;4987577;28;20178;-88
2022/05/09 11:31:42;;;;;;;1.48;0.70;;;;;;;;;;4917183;28;20192;-88
2022/05/09 11:34:36;;;;;;;1.08;0.73;;;19.80;55.60;;;;;;4987705;28;20181;-88
2022/05/09 11:37:26;;;;;;;;;;;;;;;;;;;;;
2022/05/09 11:40:14;;;;;;;0.50;0.50;;;18.30;57.10;;;;;;4997110;28;20236;-89
2022/05/09 11:46:20;;;;;;;1.75;0.77;;;18.70;57.80;;;;;;4999291;28;20186;-89
2022/05/09 11:55:23;;;;;;;;;;;;;;;;;;;;;
2022/05/09 11:57:58;;;;;;;1.30;1.17;;;20.10;54.70;;;;;;5007826;28;20246;-89
2022/05/09 12:00:49;;;;;;;0.80;0.68;;;19.90;54.50;;;;;;4983608;28;20209;-93
2022/05/09 12:06:51;;;;;;;1.65;0.90;;;19.50;55.30;;;;;;4975093;28;20204;-89
2022/05/09 12:10:00;;;;;;;1.77;0.70;;;19.60;55.40;;;;;;5002975;28;20241;-91
2022/05/09 12:12:44;;;;;;;1.77;0.70;;;19.90;54.00;;;;;;4979757;28;20178;-91
2022/05/09 12:15:24;;;;;;;0.77;0.77;;;;;;;;;;5010185;28;20205;-90
2022/05/09 12:18:05;;;;;;;1.50;1.02;;;19.80;53.60;;;;;;4994941;28;20305;-88
2022/05/09 12:21:03;;;;;;;;;;;;;;;;;;;;;
2022/05/09 12:23:52;;;;;;;0.70;0.60;;;19.90;51.20;;;;;;5012012;28;20200;-89
2022/05/09 12:26:37;;;;;;;2.47;0.50;;;19.90;53.60;;;;;;4997436;28;20219;-91
2022/05/09 12:29:25;;;;;;;;;;;;;;;;;;;;;
2022/05/09 12:32:26;;;;;;;1.48;0.65;;;19.90;53.70;;;;;;5018181;28;20198;-90
2022/05/09 12:35:51;;;;;;;;;;;;;;;;;;;;;
2022/05/09 12:39:11;;;;;;;;;;;;;;;;;;;;;
2022/05/09 13:02:03;;;;;;;1.25;0.80;;;20.00;48.70;;;;;;4884325;29;20281;-91
2022/05/09 13:04:43;;;;;;;0.60;0.60;;;20.00;50.10;;;;;;4936230;29;20213;-89
2022/05/09 13:07:11;;;;;;;0.95;0.80;;;;;;;;;;4950749;29;20210;-90
2022/05/09 13:10:22;;;;;;;;;;;;;;;;;;;;;
2022/05/09 13:15:59;;;;;;;2.33;0.82;;;;;;;;;;5002742;28;20180;-92
2022/05/09 13:18:38;;;;;;;3.60;1.10;;;20.40;47.80;;;;;;5000324;28;20185;-92
2022/05/09 13:28:12;;;;;;;0.65;0.50;;;20.00;45.50;;;;;;4901103;29;20213;-92
2022/05/09 13:34:06;;;;;;;1.50;0.70;;;20.10;46.80;;;;;;4875288;29;20258;-91
2022/05/09 13:37:12;;;;;;;1.90;0.70;;;20.30;46.80;;;;;;4893846;28;20195;-90
2022/05/09 13:40:09;;;;;;;0.50;0.45;;;20.40;45.90;;;;;;4962013;28;20190;-93
2022/05/09 13:42:42;;;;;;;1.30;1.02;;;20.40;47.30;;;;;;4961002;28;20187;-90
2022/05/09 13:45:39;;;;;;;0.95;0.82;;;20.60;45.00;;;;;;4959932;28;20226;-92
2022/05/09 13:48:21;;;;;;;5.30;1.58;;;20.50;46.10;;;;;;4963139;28;20285;-88
2022/05/09 13:51:00;;;;;;;1.23;0.80;;;20.50;46.00;;;;;;4963818;28;20290;-92
2022/05/09 13:53:49;;;;;;;2.05;0.70;;;20.30;45.00;;;;;;4986416;28;20174;-96
2022/05/09 13:56:40;;;;;;;;;;;;;;;;;;;;;
2022/05/09 13:59:19;;;;;;;2.30;0.52;;;20.50;44.90;;;;;;5019142;28;20267;-95
2022/05/09 14:02:01;;;;;;;1.40;0.80;;;20.40;44.70;;;;;;4988473;28;20212;-94
2022/05/09 14:04:30;;;;;;;0.60;0.60;;;20.40;45.60;;;;;;4999141;28;20239;-92
2022/05/09 14:10:49;;;;;;;0.90;0.65;;;;;;;;;;5017281;28;20184;-92
2022/05/09 14:13:59;;;;;;;;;;;;;;;;;;;;;
2022/05/09 14:17:00;;;;;;;1.08;0.70;;;20.50;43.90;;;;;;4937685;29;20267;-89
2022/05/09 14:19:35;;;;;;;0.80;0.80;;;20.70;48.70;;;;;;5002293;28;20184;-92
2022/05/09 14:22:27;;;;;;;0.98;0.73;;;20.00;44.70;;;;;;4987421;28;20194;-92
2022/05/09 14:32:01;;;;;;;1.10;0.70;;;19.90;45.90;;;;;;5018568;28;20180;-92
2022/05/09 14:34:27;;;;;;;1.10;0.70;;;;;;;;;;5000328;28;20188;-92
2022/05/09 14:37:49;;;;;;;;;;;;;;;;;;;;;
2022/05/09 14:43:36;;;;;;;0.73;0.50;;;;;;;;;;4945393;28;20197;-92
2022/05/09 14:46:09;;;;;;;0.93;0.80;;;19.80;46.80;;;;;;5002957;28;20262;-92
2022/05/09 14:48:42;;;;;;;0.40;0.40;;;19.80;46.30;;;;;;4995639;28;20183;-93
2022/05/09 14:51:11;;;;;;;0.75;0.75;;;;;;;;;;4994836;28;20183;-90
2022/05/09 14:54:18;;;;;;;;;;;;;;;;;;;;;
2022/05/09 14:59:35;;;;;;;0.93;0.63;;;;;;;;;;5005469;28;20232;-91
2022/05/09 15:02:11;;;;;;;0.60;0.60;;;19.70;46.20;;;;;;5001943;28;20201;-92
2022/05/09 15:04:38;;;;;;;1.02;0.40;;;;;;;;;;5003246;28;20184;-91
2022/05/09 15:07:11;;;;;;;0.63;0.63;;;19.80;44.40;;;;;;5001749;28;20262;-90
2022/05/09 15:09:44;;;;;;;2.17;0.63;;;19.70;44.20;;;;;;4984406;28;20190;-90
2022/05/09 15:12:35;;;;;;;1.63;0.70;;;19.50;44.30;;;;;;4987549;28;20177;-90
2022/05/09 15:15:11;;;;;;;1.13;0.57;;;19.50;44.50;;;;;;4984625;28;20178;-91
2022/05/09 15:17:39;;;;;;;1.38;0.50;;;19.60;45.50;;;;;;4987454;28;20182;-90
2022/05/09 15:20:14;;;;;;;0.47;0.47;;;19.70;45.20;;;;;;4988860;28;20206;-92
2022/05/09 15:22:58;;;;;;;0.50;0.50;;;19.60;42.90;;;;;;4990248;28;20635;-93
2022/05/09 15:25:24;;;;;;;0.90;0.68;;;;;;;;;;5006315;28;20209;-90
2022/05/09 15:27:52;;;;;;;1.77;0.85;;;;;;;;;;5008691;28;20182;-92
2022/05/09 15:30:30;;;;;;;1.17;0.50;;;20.10;48.10;;;;;;5010698;28;20293;-94
2022/05/09 15:33:02;;;;;;;0.77;0.60;;;20.00;42.90;;;;;;4993734;28;20177;-93
2022/05/09 15:35:35;;;;;;;1.02;0.65;;;20.10;43.00;;;;;;4994200;28;20181;-91
2022/05/09 15:38:07;;;;;;;0.40;0.40;;;;;;;;;;5002191;28;20178;-90
2022/05/09 15:40:43;;;;;;;1.55;0.30;;;20.00;43.10;;;;;;5002530;28;20639;-89
2022/05/09 15:43:29;;;;;;;;;;;;;;;;;;;;;
2022/05/09 15:46:02;;;;;;;0.88;0.68;;;20.50;42.10;;;;;;5014694;28;20292;-90
2022/05/09 15:48:40;;;;;;;5.15;1.00;;;20.80;42.40;;;;;;5005507;28;20233;-93
2022/05/09 15:51:16;;;;;;;2.45;0.50;;;20.80;42.90;;;;;;5019293;28;20246;-91
2022/05/09 15:53:42;;;;;;;0.80;0.47;;;;;;;;;;5024203;28;20172;-92
2022/05/09 15:56:15;;;;;;;0.70;0.70;;;20.70;41.80;;;;;;5042296;28;20173;-91
2022/05/09 15:58:55;;;;;;;1.05;0.50;;;20.70;42.90;;;;;;5028681;28;20177;-92
2022/05/09 16:02:44;;;;;;;;;;;;;;;;;;;;;
2022/05/09 16:05:02;;;;;;;0.40;0.40;;;;;;;;;;4996205;28;20591;-92
2022/05/09 16:13:43;;;;;;;0.88;0.70;;;16.40;39.10;;;;;;5040934;28;20164;-93
2022/05/09 16:16:29;;;;;;;;;;;;;;;;;;;;;
2022/05/09 16:19:16;;;;;;;1.75;0.88;;;20.70;44.80;;;;;;5040713;28;20263;-90
2022/05/09 16:22:21;;;;;;;0.63;0.60;;;20.00;42.10;;;;;;5007620;28;20234;-92
2022/05/09 16:24:53;;;;;;;1.40;0.75;;;19.50;43.40;;;;;;5023249;28;20242;-90
2022/05/09 16:27:31;;;;;;;0.50;0.50;;;18.90;44.40;;;;;;5023196;28;20204;-91
2022/05/09 16:30:00;;;;;;;0.90;0.50;;;18.60;44.60;;;;;;5026324;28;20614;-91
2022/05/09 16:32:40;;;;;;;2.28;0.80;;;18.40;45.80;;;;;;5031295;28;20176;-95
2022/05/09 16:35:10;;;;;;;0.57;0.57;;;;;;;;;;5033976;28;20180;-90
2022/05/09 16:37:36;;;;;;;0.60;0.50;;;;;;;;;;5030833;28;20226;-89
2022/05/09 16:40:10;;;;;;;1.00;0.75;;;17.70;45.40;;;;;;5031369;28;20208;-90
2022/05/09 16:42:46;;;;;;;0.70;0.70;;;17.50;45.30;;;;;;5000526;28;20193;-90
2022/05/09 16:45:22;;;;;;;0.52;0.50;;;17.40;45.40;;;;;;5039057;28;20216;-90
2022/05/09 16:47:54;;;;;;;0.55;0.55;;;17.30;45.40;;;;;;5038808;28;20156;-91
2022/05/09 16:50:41;;;;;;;;;;;;;;;;;;;;;
2022/05/09 16:53:07;;;;;;;0.80;0.60;;;;;;;;;;5032926;28;20272;-90
2022/05/09 16:55:42;;;;;;;1.65;0.65;;;16.90;46.00;;;;;;5025918;28;20176;-89
2022/05/09 16:58:31;;;;;;;0.93;0.70;;;16.90;46.50;;;;;;5019568;28;20528;-91
2022/05/09 17:01:03;;;;;;;1.00;0.80;;;16.80;46.30;;;;;;5018597;28;20205;-89
2022/05/09 17:03:38;;;;;;;1.25;0.70;;;;;;;;;;5035456;28;20720;-88
2022/05/09 17:06:12;;;;;;;0.65;0.60;;;;;;;;;;5017449;28;20180;-89
2022/05/09 17:08:40;;;;;;;2.00;0.93;;;;;;;;;;5017088;28;20183;-87
2022/05/09 17:11:07;;;;;;;0.60;0.60;;;;;;;;;;5017933;28;20216;-91
2022/05/09 17:13:42;;;;;;;1.38;0.93;;;16.50;48.30;;;;;;5019590;28;20259;-88
2022/05/09 17:16:18;;;;;;;;;;;;;;;;;;;;;